sensor_id;sensor_type;location;lat;lon;timestamp;P1;durP1;ratioP1;P2;durP2;ratioP2
8636;SDS011;4356;49.068;8.658;2022-10-28T00:02:20;6.50;;;3.00;;
8636;SDS011;4356;49.068;8.658;2022-10-28T00:04:46;5.93;;;3.03;;
8636;SDS011;4356;49.068;8.658;2022-10-28T00:07:11;6.40;;;4.17;;
8636;SDS011;4356;49.068;8.658;2022-10-28T00:09:37;4.17;;;3.50;;
8636;SDS011;4356;49.068;8.658;2022-10-28T00:12:02;3.90;;;3.60;;
8636;SDS011;4356;49.068;8.658;2022-10-28T00:14:28;5.93;;;3.97;;
8636;SDS011;4356;49.068;8.658;2022-10-28T00:16:54;5.07;;;4.23;;
8636;SDS011;4356;49.068;8.658;2022-10-28T00:19:19;4.40;;;4.00;;
8636;SDS011;4356;49.068;8.658;2022-10-28T00:21:45;4.63;;;3.83;;
8636;SDS011;4356;49.068;8.658;2022-10-28T00:24:11;3.97;;;3.63;;
8636;SDS011;4356;49.068;8.658;2022-10-28T00:26:38;7.40;;;3.67;;
8636;SDS011;4356;49.068;8.658;2022-10-28T00:29:09;8.20;;;3.40;;
8636;SDS011;4356;49.068;8.658;2022-10-28T00:31:42;6.77;;;3.70;;
8636;SDS011;4356;49.068;8.658;2022-10-28T00:34:10;7.23;;;3.80;;
8636;SDS011;4356;49.068;8.658;2022-10-28T00:36:38;4.20;;;3.80;;
8636;SDS011;4356;49.068;8.658;2022-10-28T00:39:15;5.93;;;3.70;;
8636;SDS011;4356;49.068;8.658;2022-10-28T00:41:43;7.80;;;3.80;;
8636;SDS011;4356;49.068;8.658;2022-10-28T00:47:05;4.70;;;3.13;;
8636;SDS011;4356;49.068;8.658;2022-10-28T00:49:38;3.77;;;3.30;;
8636;SDS011;4356;49.068;8.658;2022-10-28T00:52:06;5.20;;;3.47;;
8636;SDS011;4356;49.068;8.658;2022-10-28T00:54:37;5.60;;;3.17;;
8636;SDS011;4356;49.068;8.658;2022-10-28T00:57:04;5.77;;;3.83;;
8636;SDS011;4356;49.068;8.658;2022-10-28T00:59:38;7.43;;;3.20;;
8636;SDS011;4356;49.068;8.658;2022-10-28T01:02:08;4.77;;;4.03;;
8636;SDS011;4356;49.068;8.658;2022-10-28T01:04:33;4.80;;;3.37;;
8636;SDS011;4356;49.068;8.658;2022-10-28T01:06:59;9.10;;;3.30;;
8636;SDS011;4356;49.068;8.658;2022-10-28T01:09:25;5.07;;;3.10;;
8636;SDS011;4356;49.068;8.658;2022-10-28T01:20:32;4.33;;;3.30;;
8636;SDS011;4356;49.068;8.658;2022-10-28T01:34:09;4.13;;;3.50;;
8636;SDS011;4356;49.068;8.658;2022-10-28T01:41:53;6.53;;;3.37;;
8636;SDS011;4356;49.068;8.658;2022-10-28T01:44:30;3.93;;;3.20;;
8636;SDS011;4356;49.068;8.658;2022-10-28T01:47:19;3.30;;;3.00;;
8636;SDS011;4356;49.068;8.658;2022-10-28T01:49:58;4.60;;;2.70;;
8636;SDS011;4356;49.068;8.658;2022-10-28T01:52:30;4.77;;;3.60;;
8636;SDS011;4356;49.068;8.658;2022-10-28T01:54:59;3.17;;;2.87;;
8636;SDS011;4356;49.068;8.658;2022-10-28T01:57:32;4.40;;;3.10;;
8636;SDS011;4356;49.068;8.658;2022-10-28T02:00:00;3.73;;;2.70;;
8636;SDS011;4356;49.068;8.658;2022-10-28T02:02:29;6.93;;;2.93;;
8636;SDS011;4356;49.068;8.658;2022-10-28T02:05:33;4.03;;;2.67;;
8636;SDS011;4356;49.068;8.658;2022-10-28T02:08:00;5.23;;;3.40;;
8636;SDS011;4356;49.068;8.658;2022-10-28T02:13:33;3.20;;;2.67;;
8636;SDS011;4356;49.068;8.658;2022-10-28T02:16:16;6.63;;;3.07;;
8636;SDS011;4356;49.068;8.658;2022-10-28T02:24:21;4.57;;;2.80;;
8636;SDS011;4356;49.068;8.658;2022-10-28T02:26:59;5.13;;;2.97;;
8636;SDS011;4356;49.068;8.658;2022-10-28T02:29:40;5.00;;;3.00;;
8636;SDS011;4356;49.068;8.658;2022-10-28T02:32:14;3.57;;;3.27;;
8636;SDS011;4356;49.068;8.658;2022-10-28T02:34:46;4.00;;;2.77;;
8636;SDS011;4356;49.068;8.658;2022-10-28T02:37:22;4.60;;;3.17;;
8636;SDS011;4356;49.068;8.658;2022-10-28T02:39:54;6.27;;;2.67;;
8636;SDS011;4356;49.068;8.658;2022-10-28T02:42:26;5.60;;;2.67;;
8636;SDS011;4356;49.068;8.658;2022-10-28T02:44:56;6.60;;;2.80;;
8636;SDS011;4356;49.068;8.658;2022-10-28T02:47:26;3.23;;;2.63;;
8636;SDS011;4356;49.068;8.658;2022-10-28T02:49:57;5.23;;;3.50;;
8636;SDS011;4356;49.068;8.658;2022-10-28T02:52:27;4.33;;;3.20;;
8636;SDS011;4356;49.068;8.658;2022-10-28T02:55:02;8.80;;;3.00;;
8636;SDS011;4356;49.068;8.658;2022-10-28T02:57:33;5.43;;;3.03;;
8636;SDS011;4356;49.068;8.658;2022-10-28T03:00:05;5.27;;;3.00;;
8636;SDS011;4356;49.068;8.658;2022-10-28T03:02:33;4.37;;;3.33;;
8636;SDS011;4356;49.068;8.658;2022-10-28T03:04:59;6.43;;;3.60;;
8636;SDS011;4356;49.068;8.658;2022-10-28T03:07:24;5.30;;;3.10;;
8636;SDS011;4356;49.068;8.658;2022-10-28T03:09:50;3.23;;;2.97;;
8636;SDS011;4356;49.068;8.658;2022-10-28T03:12:15;3.53;;;3.23;;
8636;SDS011;4356;49.068;8.658;2022-10-28T03:14:41;6.27;;;3.30;;
8636;SDS011;4356;49.068;8.658;2022-10-28T03:17:08;4.67;;;3.20;;
8636;SDS011;4356;49.068;8.658;2022-10-28T03:19:33;6.53;;;3.20;;
8636;SDS011;4356;49.068;8.658;2022-10-28T03:21:59;3.70;;;3.03;;
8636;SDS011;4356;49.068;8.658;2022-10-28T03:24:24;4.67;;;3.40;;
8636;SDS011;4356;49.068;8.658;2022-10-28T03:26:50;5.87;;;3.47;;
8636;SDS011;4356;49.068;8.658;2022-10-28T03:29:16;5.90;;;3.40;;
8636;SDS011;4356;49.068;8.658;2022-10-28T03:31:41;7.43;;;3.33;;
8636;SDS011;4356;49.068;8.658;2022-10-28T03:34:07;8.97;;;3.20;;
8636;SDS011;4356;49.068;8.658;2022-10-28T03:36:32;3.33;;;2.90;;
8636;SDS011;4356;49.068;8.658;2022-10-28T03:38:58;7.57;;;3.10;;
8636;SDS011;4356;49.068;8.658;2022-10-28T03:41:23;4.77;;;3.30;;
8636;SDS011;4356;49.068;8.658;2022-10-28T03:43:49;4.33;;;2.90;;
8636;SDS011;4356;49.068;8.658;2022-10-28T03:46:14;4.27;;;3.13;;
8636;SDS011;4356;49.068;8.658;2022-10-28T03:48:40;6.17;;;3.13;;
8636;SDS011;4356;49.068;8.658;2022-10-28T03:51:06;5.03;;;3.30;;
8636;SDS011;4356;49.068;8.658;2022-10-28T03:53:31;7.60;;;3.67;;
8636;SDS011;4356;49.068;8.658;2022-10-28T03:55:58;5.67;;;3.20;;
8636;SDS011;4356;49.068;8.658;2022-10-28T03:58:25;5.43;;;3.63;;
8636;SDS011;4356;49.068;8.658;2022-10-28T04:00:54;6.97;;;3.23;;
8636;SDS011;4356;49.068;8.658;2022-10-28T04:03:21;5.23;;;3.37;;
8636;SDS011;4356;49.068;8.658;2022-10-28T04:05:48;5.50;;;3.30;;
8636;SDS011;4356;49.068;8.658;2022-10-28T04:08:17;3.57;;;3.37;;
8636;SDS011;4356;49.068;8.658;2022-10-28T04:10:43;6.10;;;3.97;;
8636;SDS011;4356;49.068;8.658;2022-10-28T04:13:09;4.23;;;3.23;;
8636;SDS011;4356;49.068;8.658;2022-10-28T04:15:35;3.90;;;3.50;;
8636;SDS011;4356;49.068;8.658;2022-10-28T04:18:01;4.53;;;3.50;;
8636;SDS011;4356;49.068;8.658;2022-10-28T04:20:27;6.20;;;3.40;;
8636;SDS011;4356;49.068;8.658;2022-10-28T04:22:52;5.67;;;3.40;;
8636;SDS011;4356;49.068;8.658;2022-10-28T04:25:21;5.07;;;3.40;;
8636;SDS011;4356;49.068;8.658;2022-10-28T04:27:47;5.23;;;3.60;;
8636;SDS011;4356;49.068;8.658;2022-10-28T04:30:13;5.00;;;3.70;;
8636;SDS011;4356;49.068;8.658;2022-10-28T04:32:40;5.90;;;3.70;;
8636;SDS011;4356;49.068;8.658;2022-10-28T04:35:06;6.47;;;3.50;;
8636;SDS011;4356;49.068;8.658;2022-10-28T04:37:32;4.70;;;3.57;;
8636;SDS011;4356;49.068;8.658;2022-10-28T04:39:58;6.57;;;3.57;;
8636;SDS011;4356;49.068;8.658;2022-10-28T04:42:24;6.57;;;3.40;;
8636;SDS011;4356;49.068;8.658;2022-10-28T04:44:49;6.83;;;3.80;;
8636;SDS011;4356;49.068;8.658;2022-10-28T04:47:15;4.53;;;2.97;;
8636;SDS011;4356;49.068;8.658;2022-10-28T04:49:41;5.63;;;3.23;;
8636;SDS011;4356;49.068;8.658;2022-10-28T04:52:07;5.53;;;3.30;;
8636;SDS011;4356;49.068;8.658;2022-10-28T04:54:33;3.80;;;3.50;;
8636;SDS011;4356;49.068;8.658;2022-10-28T04:56:58;7.53;;;4.13;;
8636;SDS011;4356;49.068;8.658;2022-10-28T04:59:23;4.77;;;3.67;;
8636;SDS011;4356;49.068;8.658;2022-10-28T05:01:49;3.60;;;3.27;;
8636;SDS011;4356;49.068;8.658;2022-10-28T05:04:15;5.50;;;3.80;;
8636;SDS011;4356;49.068;8.658;2022-10-28T05:06:40;6.97;;;3.80;;
8636;SDS011;4356;49.068;8.658;2022-10-28T05:09:06;6.27;;;3.40;;
8636;SDS011;4356;49.068;8.658;2022-10-28T05:11:31;6.83;;;3.60;;
8636;SDS011;4356;49.068;8.658;2022-10-28T05:13:57;5.83;;;3.90;;
8636;SDS011;4356;49.068;8.658;2022-10-28T05:16:23;7.80;;;4.00;;
8636;SDS011;4356;49.068;8.658;2022-10-28T05:18:48;6.10;;;4.20;;
8636;SDS011;4356;49.068;8.658;2022-10-28T05:21:14;5.70;;;4.47;;
8636;SDS011;4356;49.068;8.658;2022-10-28T05:23:40;6.43;;;3.53;;
8636;SDS011;4356;49.068;8.658;2022-10-28T05:26:05;5.07;;;4.13;;
8636;SDS011;4356;49.068;8.658;2022-10-28T05:28:31;6.00;;;3.93;;
8636;SDS011;4356;49.068;8.658;2022-10-28T05:30:56;5.57;;;3.50;;
8636;SDS011;4356;49.068;8.658;2022-10-28T05:33:22;5.40;;;3.97;;
8636;SDS011;4356;49.068;8.658;2022-10-28T05:35:47;7.53;;;3.93;;
8636;SDS011;4356;49.068;8.658;2022-10-28T05:38:13;7.33;;;4.03;;
8636;SDS011;4356;49.068;8.658;2022-10-28T05:40:39;5.33;;;3.93;;
8636;SDS011;4356;49.068;8.658;2022-10-28T05:43:04;7.27;;;3.80;;
8636;SDS011;4356;49.068;8.658;2022-10-28T05:45:30;7.70;;;3.57;;
8636;SDS011;4356;49.068;8.658;2022-10-28T05:47:56;6.77;;;4.07;;
8636;SDS011;4356;49.068;8.658;2022-10-28T05:50:22;6.73;;;4.13;;
8636;SDS011;4356;49.068;8.658;2022-10-28T05:52:48;4.33;;;3.50;;
8636;SDS011;4356;49.068;8.658;2022-10-28T05:55:16;4.67;;;3.50;;
8636;SDS011;4356;49.068;8.658;2022-10-28T05:57:44;7.13;;;3.67;;
8636;SDS011;4356;49.068;8.658;2022-10-28T06:00:10;4.30;;;3.80;;
8636;SDS011;4356;49.068;8.658;2022-10-28T06:02:36;6.47;;;3.90;;
8636;SDS011;4356;49.068;8.658;2022-10-28T06:05:02;4.93;;;3.50;;
8636;SDS011;4356;49.068;8.658;2022-10-28T06:07:28;9.23;;;4.33;;
8636;SDS011;4356;49.068;8.658;2022-10-28T06:09:55;6.07;;;3.80;;
8636;SDS011;4356;49.068;8.658;2022-10-28T06:12:20;6.33;;;4.03;;
8636;SDS011;4356;49.068;8.658;2022-10-28T06:14:46;9.87;;;4.80;;
8636;SDS011;4356;49.068;8.658;2022-10-28T06:17:11;8.13;;;4.37;;
8636;SDS011;4356;49.068;8.658;2022-10-28T06:19:37;6.43;;;4.03;;
8636;SDS011;4356;49.068;8.658;2022-10-28T06:22:02;6.70;;;3.53;;
8636;SDS011;4356;49.068;8.658;2022-10-28T06:24:28;7.03;;;4.13;;
8636;SDS011;4356;49.068;8.658;2022-10-28T06:26:53;4.07;;;3.60;;
8636;SDS011;4356;49.068;8.658;2022-10-28T06:29:19;6.50;;;3.77;;
8636;SDS011;4356;49.068;8.658;2022-10-28T06:31:45;11.40;;;3.87;;
8636;SDS011;4356;49.068;8.658;2022-10-28T06:34:11;4.60;;;3.70;;
8636;SDS011;4356;49.068;8.658;2022-10-28T06:36:37;3.77;;;3.40;;
8636;SDS011;4356;49.068;8.658;2022-10-28T06:39:03;6.90;;;3.93;;
8636;SDS011;4356;49.068;8.658;2022-10-28T06:41:29;6.53;;;3.90;;
8636;SDS011;4356;49.068;8.658;2022-10-28T06:43:55;5.60;;;3.90;;
8636;SDS011;4356;49.068;8.658;2022-10-28T06:46:21;6.90;;;3.67;;
8636;SDS011;4356;49.068;8.658;2022-10-28T06:48:48;9.10;;;4.27;;
8636;SDS011;4356;49.068;8.658;2022-10-28T06:51:13;6.90;;;3.77;;
8636;SDS011;4356;49.068;8.658;2022-10-28T06:53:41;6.97;;;4.00;;
8636;SDS011;4356;49.068;8.658;2022-10-28T06:56:07;5.83;;;3.43;;
8636;SDS011;4356;49.068;8.658;2022-10-28T06:58:33;6.20;;;3.83;;
8636;SDS011;4356;49.068;8.658;2022-10-28T07:01:05;6.77;;;3.37;;
8636;SDS011;4356;49.068;8.658;2022-10-28T07:03:31;5.47;;;3.53;;
8636;SDS011;4356;49.068;8.658;2022-10-28T07:05:57;4.37;;;3.23;;
8636;SDS011;4356;49.068;8.658;2022-10-28T07:08:23;5.53;;;3.10;;
8636;SDS011;4356;49.068;8.658;2022-10-28T07:10:53;6.03;;;4.00;;
8636;SDS011;4356;49.068;8.658;2022-10-28T07:13:23;5.87;;;3.70;;
8636;SDS011;4356;49.068;8.658;2022-10-28T07:15:52;5.13;;;3.70;;
8636;SDS011;4356;49.068;8.658;2022-10-28T07:18:19;3.97;;;3.63;;
8636;SDS011;4356;49.068;8.658;2022-10-28T07:20:45;8.63;;;4.00;;
8636;SDS011;4356;49.068;8.658;2022-10-28T07:23:11;5.47;;;3.43;;
8636;SDS011;4356;49.068;8.658;2022-10-28T07:25:36;6.20;;;3.67;;
8636;SDS011;4356;49.068;8.658;2022-10-28T07:28:02;7.07;;;3.40;;
8636;SDS011;4356;49.068;8.658;2022-10-28T07:30:28;8.93;;;3.47;;
8636;SDS011;4356;49.068;8.658;2022-10-28T07:32:54;5.23;;;3.47;;
8636;SDS011;4356;49.068;8.658;2022-10-28T07:35:20;6.67;;;3.70;;
8636;SDS011;4356;49.068;8.658;2022-10-28T07:37:46;4.73;;;3.50;;
8636;SDS011;4356;49.068;8.658;2022-10-28T07:40:12;5.37;;;3.60;;
8636;SDS011;4356;49.068;8.658;2022-10-28T07:42:38;5.07;;;3.37;;
8636;SDS011;4356;49.068;8.658;2022-10-28T07:45:04;6.80;;;3.93;;
8636;SDS011;4356;49.068;8.658;2022-10-28T07:47:30;6.30;;;3.50;;
8636;SDS011;4356;49.068;8.658;2022-10-28T07:49:55;5.33;;;3.53;;
8636;SDS011;4356;49.068;8.658;2022-10-28T07:52:21;4.00;;;3.30;;
8636;SDS011;4356;49.068;8.658;2022-10-28T07:54:47;6.37;;;3.73;;
8636;SDS011;4356;49.068;8.658;2022-10-28T07:57:12;6.17;;;3.87;;
8636;SDS011;4356;49.068;8.658;2022-10-28T07:59:38;7.90;;;4.07;;
8636;SDS011;4356;49.068;8.658;2022-10-28T08:02:03;6.53;;;5.07;;
8636;SDS011;4356;49.068;8.658;2022-10-28T08:04:29;5.70;;;5.10;;
8636;SDS011;4356;49.068;8.658;2022-10-28T08:06:56;6.33;;;4.47;;
8636;SDS011;4356;49.068;8.658;2022-10-28T08:09:21;4.33;;;4.03;;
8636;SDS011;4356;49.068;8.658;2022-10-28T08:11:47;6.17;;;4.20;;
8636;SDS011;4356;49.068;8.658;2022-10-28T08:14:13;9.13;;;4.73;;
8636;SDS011;4356;49.068;8.658;2022-10-28T08:16:38;6.17;;;4.03;;
8636;SDS011;4356;49.068;8.658;2022-10-28T08:19:04;4.13;;;3.77;;
8636;SDS011;4356;49.068;8.658;2022-10-28T08:21:29;8.70;;;4.20;;
8636;SDS011;4356;49.068;8.658;2022-10-28T08:23:55;4.77;;;4.00;;
8636;SDS011;4356;49.068;8.658;2022-10-28T08:26:20;4.93;;;4.17;;
8636;SDS011;4356;49.068;8.658;2022-10-28T08:28:46;9.67;;;4.13;;
8636;SDS011;4356;49.068;8.658;2022-10-28T08:31:12;7.40;;;4.30;;
8636;SDS011;4356;49.068;8.658;2022-10-28T08:33:38;5.47;;;4.07;;
8636;SDS011;4356;49.068;8.658;2022-10-28T08:36:06;6.50;;;3.93;;
8636;SDS011;4356;49.068;8.658;2022-10-28T08:38:35;4.93;;;4.20;;
8636;SDS011;4356;49.068;8.658;2022-10-28T08:41:04;5.10;;;4.27;;
8636;SDS011;4356;49.068;8.658;2022-10-28T08:43:40;8.60;;;4.63;;
8636;SDS011;4356;49.068;8.658;2022-10-28T08:46:25;8.17;;;4.23;;
8636;SDS011;4356;49.068;8.658;2022-10-28T08:49:01;5.83;;;3.77;;
8636;SDS011;4356;49.068;8.658;2022-10-28T08:51:37;8.07;;;5.03;;
8636;SDS011;4356;49.068;8.658;2022-10-28T08:54:17;6.93;;;4.10;;
8636;SDS011;4356;49.068;8.658;2022-10-28T08:56:50;5.73;;;3.90;;
8636;SDS011;4356;49.068;8.658;2022-10-28T08:59:39;6.80;;;4.00;;
8636;SDS011;4356;49.068;8.658;2022-10-28T09:02:25;9.57;;;5.27;;
8636;SDS011;4356;49.068;8.658;2022-10-28T09:05:04;8.17;;;5.87;;
8636;SDS011;4356;49.068;8.658;2022-10-28T09:07:41;13.03;;;6.07;;
8636;SDS011;4356;49.068;8.658;2022-10-28T09:10:09;13.70;;;6.13;;
8636;SDS011;4356;49.068;8.658;2022-10-28T09:23:32;14.60;;;6.80;;
8636;SDS011;4356;49.068;8.658;2022-10-28T09:29:03;7.90;;;4.57;;
8636;SDS011;4356;49.068;8.658;2022-10-28T09:32:06;6.23;;;4.83;;
8636;SDS011;4356;49.068;8.658;2022-10-28T09:35:00;4.53;;;4.10;;
8636;SDS011;4356;49.068;8.658;2022-10-28T09:37:39;6.60;;;4.10;;
8636;SDS011;4356;49.068;8.658;2022-10-28T09:40:13;9.40;;;4.57;;
8636;SDS011;4356;49.068;8.658;2022-10-28T09:42:41;8.50;;;4.87;;
8636;SDS011;4356;49.068;8.658;2022-10-28T09:45:16;16.23;;;4.83;;
8636;SDS011;4356;49.068;8.658;2022-10-28T09:48:09;9.83;;;4.80;;
8636;SDS011;4356;49.068;8.658;2022-10-28T09:50:34;5.63;;;4.27;;
8636;SDS011;4356;49.068;8.658;2022-10-28T09:53:15;7.00;;;4.30;;
8636;SDS011;4356;49.068;8.658;2022-10-28T09:56:04;8.23;;;4.30;;
8636;SDS011;4356;49.068;8.658;2022-10-28T09:58:33;10.83;;;4.77;;
8636;SDS011;4356;49.068;8.658;2022-10-28T10:01:00;8.90;;;4.50;;
8636;SDS011;4356;49.068;8.658;2022-10-28T10:03:27;7.00;;;4.47;;
8636;SDS011;4356;49.068;8.658;2022-10-28T10:05:54;9.07;;;4.57;;
8636;SDS011;4356;49.068;8.658;2022-10-28T10:08:22;9.97;;;4.60;;
8636;SDS011;4356;49.068;8.658;2022-10-28T10:10:56;10.60;;;5.00;;
8636;SDS011;4356;49.068;8.658;2022-10-28T10:13:29;6.63;;;4.70;;
8636;SDS011;4356;49.068;8.658;2022-10-28T10:16:18;9.33;;;5.10;;
8636;SDS011;4356;49.068;8.658;2022-10-28T10:18:50;9.77;;;4.40;;
8636;SDS011;4356;49.068;8.658;2022-10-28T10:24:28;9.03;;;4.83;;
8636;SDS011;4356;49.068;8.658;2022-10-28T10:29:34;10.17;;;5.13;;
8636;SDS011;4356;49.068;8.658;2022-10-28T10:32:15;7.63;;;4.43;;
8636;SDS011;4356;49.068;8.658;2022-10-28T10:34:48;7.57;;;4.57;;
8636;SDS011;4356;49.068;8.658;2022-10-28T10:37:20;10.03;;;5.63;;
8636;SDS011;4356;49.068;8.658;2022-10-28T10:42:24;7.60;;;4.90;;
8636;SDS011;4356;49.068;8.658;2022-10-28T10:48:08;8.57;;;4.60;;
8636;SDS011;4356;49.068;8.658;2022-10-28T10:50:37;9.20;;;4.73;;
8636;SDS011;4356;49.068;8.658;2022-10-28T10:53:03;4.60;;;4.03;;
8636;SDS011;4356;49.068;8.658;2022-10-28T10:55:34;13.20;;;4.40;;
8636;SDS011;4356;49.068;8.658;2022-10-28T10:58:04;8.23;;;4.67;;
8636;SDS011;4356;49.068;8.658;2022-10-28T11:00:36;7.50;;;3.93;;
8636;SDS011;4356;49.068;8.658;2022-10-28T11:03:06;9.20;;;4.23;;
8636;SDS011;4356;49.068;8.658;2022-10-28T11:05:52;6.67;;;3.80;;
8636;SDS011;4356;49.068;8.658;2022-10-28T11:11:02;9.60;;;3.93;;
8636;SDS011;4356;49.068;8.658;2022-10-28T11:13:47;3.97;;;3.23;;
8636;SDS011;4356;49.068;8.658;2022-10-28T11:16:26;5.47;;;3.57;;
8636;SDS011;4356;49.068;8.658;2022-10-28T11:18:52;4.90;;;3.67;;
8636;SDS011;4356;49.068;8.658;2022-10-28T11:21:25;7.73;;;3.73;;
8636;SDS011;4356;49.068;8.658;2022-10-28T11:26:57;7.30;;;4.40;;
8636;SDS011;4356;49.068;8.658;2022-10-28T11:29:24;8.10;;;4.20;;
8636;SDS011;4356;49.068;8.658;2022-10-28T11:37:22;8.70;;;3.73;;
8636;SDS011;4356;49.068;8.658;2022-10-28T11:56:47;6.57;;;3.37;;
8636;SDS011;4356;49.068;8.658;2022-10-28T12:24:02;4.10;;;3.47;;
8636;SDS011;4356;49.068;8.658;2022-10-28T12:26:35;9.20;;;3.87;;
8636;SDS011;4356;49.068;8.658;2022-10-28T12:29:15;5.27;;;3.30;;
8636;SDS011;4356;49.068;8.658;2022-10-28T12:31:47;5.07;;;3.70;;
8636;SDS011;4356;49.068;8.658;2022-10-28T12:34:21;6.27;;;3.70;;
8636;SDS011;4356;49.068;8.658;2022-10-28T12:37:01;7.63;;;3.57;;
8636;SDS011;4356;49.068;8.658;2022-10-28T12:40:17;5.00;;;2.80;;
8636;SDS011;4356;49.068;8.658;2022-10-28T12:42:27;5.60;;;3.40;;
8636;SDS011;4356;49.068;8.658;2022-10-28T12:44:58;5.77;;;4.00;;
8636;SDS011;4356;49.068;8.658;2022-10-28T12:47:36;4.83;;;3.20;;
8636;SDS011;4356;49.068;8.658;2022-10-28T12:52:54;4.40;;;2.93;;
8636;SDS011;4356;49.068;8.658;2022-10-28T12:55:30;7.13;;;3.70;;
8636;SDS011;4356;49.068;8.658;2022-10-28T13:00:56;4.33;;;3.30;;
8636;SDS011;4356;49.068;8.658;2022-10-28T13:03:34;9.33;;;3.13;;
8636;SDS011;4356;49.068;8.658;2022-10-28T13:06:13;4.83;;;3.13;;
8636;SDS011;4356;49.068;8.658;2022-10-28T13:14:24;7.33;;;3.47;;
8636;SDS011;4356;49.068;8.658;2022-10-28T13:22:58;6.10;;;3.27;;
8636;SDS011;4356;49.068;8.658;2022-10-28T13:25:47;3.63;;;3.17;;
8636;SDS011;4356;49.068;8.658;2022-10-28T13:28:23;5.00;;;3.20;;
8636;SDS011;4356;49.068;8.658;2022-10-28T13:31:02;3.37;;;3.07;;
8636;SDS011;4356;49.068;8.658;2022-10-28T13:33:30;9.40;;;3.60;;
8636;SDS011;4356;49.068;8.658;2022-10-28T13:36:07;4.83;;;3.30;;
8636;SDS011;4356;49.068;8.658;2022-10-28T13:38:40;8.80;;;3.30;;
8636;SDS011;4356;49.068;8.658;2022-10-28T13:41:07;8.57;;;3.10;;
8636;SDS011;4356;49.068;8.658;2022-10-28T13:49:33;6.23;;;3.23;;
8636;SDS011;4356;49.068;8.658;2022-10-28T13:54:32;6.77;;;3.60;;
8636;SDS011;4356;49.068;8.658;2022-10-28T13:57:33;5.83;;;3.20;;
8636;SDS011;4356;49.068;8.658;2022-10-28T14:00:02;8.17;;;3.63;;
8636;SDS011;4356;49.068;8.658;2022-10-28T14:08:02;9.17;;;3.50;;
8636;SDS011;4356;49.068;8.658;2022-10-28T14:10:33;6.03;;;3.40;;
8636;SDS011;4356;49.068;8.658;2022-10-28T14:13:03;12.27;;;3.70;;
8636;SDS011;4356;49.068;8.658;2022-10-28T14:15:38;4.73;;;3.10;;
8636;SDS011;4356;49.068;8.658;2022-10-28T14:36:13;8.83;;;3.67;;
8636;SDS011;4356;49.068;8.658;2022-10-28T14:50:46;6.53;;;3.57;;
8636;SDS011;4356;49.068;8.658;2022-10-28T14:53:18;6.60;;;3.93;;
8636;SDS011;4356;49.068;8.658;2022-10-28T14:55:58;5.87;;;3.20;;
8636;SDS011;4356;49.068;8.658;2022-10-28T14:58:27;9.90;;;3.53;;
8636;SDS011;4356;49.068;8.658;2022-10-28T15:01:10;5.87;;;3.67;;
8636;SDS011;4356;49.068;8.658;2022-10-28T15:03:41;9.33;;;3.33;;
8636;SDS011;4356;49.068;8.658;2022-10-28T15:06:26;4.40;;;3.40;;
8636;SDS011;4356;49.068;8.658;2022-10-28T15:08:52;6.10;;;3.87;;
8636;SDS011;4356;49.068;8.658;2022-10-28T15:11:18;6.70;;;3.70;;
8636;SDS011;4356;49.068;8.658;2022-10-28T15:13:51;5.63;;;3.03;;
8636;SDS011;4356;49.068;8.658;2022-10-28T15:16:21;7.33;;;4.00;;
8636;SDS011;4356;49.068;8.658;2022-10-28T15:18:51;3.57;;;3.03;;
8636;SDS011;4356;49.068;8.658;2022-10-28T15:21:19;6.13;;;3.67;;
8636;SDS011;4356;49.068;8.658;2022-10-28T15:24:01;5.00;;;3.60;;
8636;SDS011;4356;49.068;8.658;2022-10-28T15:26:30;10.20;;;3.80;;
8636;SDS011;4356;49.068;8.658;2022-10-28T15:28:56;7.23;;;3.57;;
8636;SDS011;4356;49.068;8.658;2022-10-28T15:31:24;8.87;;;3.90;;
8636;SDS011;4356;49.068;8.658;2022-10-28T15:33:50;9.17;;;3.30;;
8636;SDS011;4356;49.068;8.658;2022-10-28T15:36:19;9.90;;;3.10;;
8636;SDS011;4356;49.068;8.658;2022-10-28T15:38:51;11.30;;;3.57;;
8636;SDS011;4356;49.068;8.658;2022-10-28T15:43:55;4.77;;;4.07;;
8636;SDS011;4356;49.068;8.658;2022-10-28T15:46:23;6.07;;;3.63;;
8636;SDS011;4356;49.068;8.658;2022-10-28T15:48:50;8.13;;;3.43;;
8636;SDS011;4356;49.068;8.658;2022-10-28T15:51:17;5.87;;;3.73;;
8636;SDS011;4356;49.068;8.658;2022-10-28T15:53:48;11.03;;;3.57;;
8636;SDS011;4356;49.068;8.658;2022-10-28T15:56:21;7.90;;;4.03;;
8636;SDS011;4356;49.068;8.658;2022-10-28T16:01:27;11.13;;;3.93;;
8636;SDS011;4356;49.068;8.658;2022-10-28T16:04:03;5.40;;;3.30;;
8636;SDS011;4356;49.068;8.658;2022-10-28T16:06:52;5.43;;;3.37;;
8636;SDS011;4356;49.068;8.658;2022-10-28T16:11:53;6.83;;;3.50;;
8636;SDS011;4356;49.068;8.658;2022-10-28T16:14:30;11.03;;;3.90;;
8636;SDS011;4356;49.068;8.658;2022-10-28T16:17:04;8.27;;;3.63;;
8636;SDS011;4356;49.068;8.658;2022-10-28T16:19:38;8.80;;;3.70;;
8636;SDS011;4356;49.068;8.658;2022-10-28T16:22:12;8.97;;;3.67;;
8636;SDS011;4356;49.068;8.658;2022-10-28T16:24:38;4.00;;;3.33;;
8636;SDS011;4356;49.068;8.658;2022-10-28T16:27:15;8.63;;;3.50;;
8636;SDS011;4356;49.068;8.658;2022-10-28T16:29:42;7.93;;;3.67;;
8636;SDS011;4356;49.068;8.658;2022-10-28T16:32:10;4.87;;;3.53;;
8636;SDS011;4356;49.068;8.658;2022-10-28T16:34:37;5.67;;;3.37;;
8636;SDS011;4356;49.068;8.658;2022-10-28T16:37:04;6.17;;;3.60;;
8636;SDS011;4356;49.068;8.658;2022-10-28T16:39:57;8.80;;;3.40;;
8636;SDS011;4356;49.068;8.658;2022-10-28T16:42:23;8.47;;;3.73;;
8636;SDS011;4356;49.068;8.658;2022-10-28T16:44:49;4.80;;;3.40;;
8636;SDS011;4356;49.068;8.658;2022-10-28T16:47:16;4.60;;;4.20;;
8636;SDS011;4356;49.068;8.658;2022-10-28T16:49:46;6.83;;;3.60;;
8636;SDS011;4356;49.068;8.658;2022-10-28T16:52:18;6.20;;;3.90;;
8636;SDS011;4356;49.068;8.658;2022-10-28T16:54:46;10.13;;;3.70;;
8636;SDS011;4356;49.068;8.658;2022-10-28T16:57:12;4.97;;;3.87;;
8636;SDS011;4356;49.068;8.658;2022-10-28T16:59:44;7.70;;;4.20;;
8636;SDS011;4356;49.068;8.658;2022-10-28T17:04:50;10.07;;;4.97;;
8636;SDS011;4356;49.068;8.658;2022-10-28T17:07:16;5.73;;;5.17;;
8636;SDS011;4356;49.068;8.658;2022-10-28T17:09:42;6.57;;;4.57;;
8636;SDS011;4356;49.068;8.658;2022-10-28T17:12:15;6.70;;;4.17;;
8636;SDS011;4356;49.068;8.658;2022-10-28T17:14:42;9.17;;;4.47;;
8636;SDS011;4356;49.068;8.658;2022-10-28T17:17:08;8.17;;;4.23;;
8636;SDS011;4356;49.068;8.658;2022-10-28T17:19:34;5.83;;;4.23;;
8636;SDS011;4356;49.068;8.658;2022-10-28T17:22:00;11.50;;;5.00;;
8636;SDS011;4356;49.068;8.658;2022-10-28T17:24:26;6.83;;;4.67;;
8636;SDS011;4356;49.068;8.658;2022-10-28T17:26:52;8.93;;;5.67;;
8636;SDS011;4356;49.068;8.658;2022-10-28T17:29:17;4.90;;;4.23;;
8636;SDS011;4356;49.068;8.658;2022-10-28T17:31:43;4.93;;;4.17;;
8636;SDS011;4356;49.068;8.658;2022-10-28T17:34:09;9.97;;;5.23;;
8636;SDS011;4356;49.068;8.658;2022-10-28T17:36:35;7.97;;;5.10;;
8636;SDS011;4356;49.068;8.658;2022-10-28T17:39:00;5.47;;;3.97;;
8636;SDS011;4356;49.068;8.658;2022-10-28T17:41:26;4.67;;;3.57;;
8636;SDS011;4356;49.068;8.658;2022-10-28T17:43:52;5.13;;;3.03;;
8636;SDS011;4356;49.068;8.658;2022-10-28T17:46:18;7.60;;;4.10;;
8636;SDS011;4356;49.068;8.658;2022-10-28T17:48:44;6.10;;;4.00;;
8636;SDS011;4356;49.068;8.658;2022-10-28T17:51:10;3.90;;;3.50;;
8636;SDS011;4356;49.068;8.658;2022-10-28T17:53:36;10.00;;;3.90;;
8636;SDS011;4356;49.068;8.658;2022-10-28T17:56:02;6.23;;;3.50;;
8636;SDS011;4356;49.068;8.658;2022-10-28T17:58:29;6.30;;;4.27;;
8636;SDS011;4356;49.068;8.658;2022-10-28T18:00:58;6.63;;;5.40;;
8636;SDS011;4356;49.068;8.658;2022-10-28T18:03:28;18.70;;;5.43;;
8636;SDS011;4356;49.068;8.658;2022-10-28T18:05:54;7.63;;;3.60;;
8636;SDS011;4356;49.068;8.658;2022-10-28T18:08:20;8.40;;;4.23;;
8636;SDS011;4356;49.068;8.658;2022-10-28T18:10:53;7.07;;;4.23;;
8636;SDS011;4356;49.068;8.658;2022-10-28T18:13:30;4.53;;;3.90;;
8636;SDS011;4356;49.068;8.658;2022-10-28T18:16:07;11.50;;;6.90;;
8636;SDS011;4356;49.068;8.658;2022-10-28T18:18:37;7.17;;;6.47;;
8636;SDS011;4356;49.068;8.658;2022-10-28T18:21:04;9.80;;;7.17;;
8636;SDS011;4356;49.068;8.658;2022-10-28T18:23:32;13.83;;;11.03;;
8636;SDS011;4356;49.068;8.658;2022-10-28T18:25:59;18.10;;;10.43;;
8636;SDS011;4356;49.068;8.658;2022-10-28T18:28:34;18.23;;;13.43;;
8636;SDS011;4356;49.068;8.658;2022-10-28T18:31:04;8.33;;;6.73;;
8636;SDS011;4356;49.068;8.658;2022-10-28T18:33:31;7.67;;;4.70;;
8636;SDS011;4356;49.068;8.658;2022-10-28T18:36:01;10.27;;;4.70;;
8636;SDS011;4356;49.068;8.658;2022-10-28T18:38:29;8.10;;;4.67;;